Time;durP1;ratioP1;P1;durP2;ratioP2;P2;SDS_P1;SDS_P2;PMS_P1;PMS_P2;Temp;Humidity;BMP_temperature;BMP_pressure;BME280_temperature;BME280_humidity;BME280_pressure;Samples;Min_cycle;Max_cycle;Signal;HPM_P1;HPM_P2
2021/06/10 00:01:28;;;;;;;13.93;12.53;;;20.20;99.90;;;;;;5031956;28;20451;-72
2021/06/10 00:03:54;;;;;;;21.10;16.47;;;20.20;99.90;;;;;;5029705;28;20459;-72
2021/06/10 00:06:22;;;;;;;15.90;12.87;;;20.10;99.90;;;;;;5031567;28;20517;-71
2021/06/10 00:08:49;;;;;;;13.50;12.07;;;20.10;99.90;;;;;;5030593;28;20447;-72
2021/06/10 00:11:16;;;;;;;13.13;11.83;;;20.20;99.90;;;;;;5027603;28;20786;-72
2021/06/10 00:18:49;;;;;;;11.47;10.27;;;20.00;99.90;;;;;;5030077;28;20471;-73
2021/06/10 00:21:16;;;;;;;13.30;11.90;;;20.10;99.90;;;;;;5052038;28;20450;-74
2021/06/10 00:23:44;;;;;;;14.30;12.80;;;20.10;99.90;;;;;;5052626;28;20551;-73
2021/06/10 00:26:10;;;;;;;14.03;12.63;;;20.10;99.90;;;;;;5043610;28;20505;-74
2021/06/10 00:28:37;;;;;;;11.60;10.40;;;20.00;99.90;;;;;;5029712;28;20511;-74
2021/06/10 00:31:04;;;;;;;13.10;11.23;;;20.10;99.90;;;;;;5032826;28;20450;-74
2021/06/10 00:33:30;;;;;;;14.27;12.87;;;20.10;99.90;;;;;;5031374;28;20490;-73
2021/06/10 00:35:57;;;;;;;12.03;10.80;;;20.10;99.90;;;;;;5032188;28;20495;-74
2021/06/10 00:38:25;;;;;;;12.60;11.30;;;20.00;99.90;;;;;;5037173;28;20454;-75
2021/06/10 00:40:53;;;;;;;12.57;11.40;;;20.10;99.90;;;;;;5031766;28;20451;-75
2021/06/10 00:43:20;;;;;;;10.17;9.20;;;20.00;99.90;;;;;;5031079;28;20449;-76
2021/06/10 00:45:47;;;;;;;11.67;10.47;;;20.00;99.90;;;;;;5031445;28;20513;-75
2021/06/10 00:48:13;;;;;;;13.03;11.10;;;20.00;99.90;;;;;;5031673;28;20435;-74
2021/06/10 00:50:42;;;;;;;10.57;9.47;;;20.00;99.90;;;;;;5026755;28;20454;-75
2021/06/10 00:53:20;;;;;;;11.83;10.73;;;20.10;99.90;;;;;;5031730;28;20453;-75
2021/06/10 00:55:48;;;;;;;18.63;12.27;;;20.00;99.90;;;;;;5012987;28;20451;-74
2021/06/10 00:58:17;;;;;;;13.63;12.33;;;19.90;99.90;;;;;;5031844;28;20442;-74
2021/06/10 01:00:44;;;;;;;14.30;12.27;;;19.80;99.90;;;;;;5032130;28;20457;-73
2021/06/10 01:03:11;;;;;;;14.60;11.43;;;19.70;99.90;;;;;;5032007;28;20461;-74
2021/06/10 01:05:38;;;;;;;11.50;10.33;;;19.70;99.90;;;;;;5031064;28;20502;-74
2021/06/10 01:08:14;;;;;;;14.60;9.83;;;19.70;99.90;;;;;;5037359;28;20869;-75
2021/06/10 01:10:53;;;;;;;13.37;11.97;;;19.70;99.90;;;;;;5031768;28;20455;-74
2021/06/10 01:13:31;;;;;;;13.53;12.13;;;19.70;99.90;;;;;;5009687;28;20458;-73
2021/06/10 01:16:03;;;;;;;14.33;11.80;;;19.70;99.90;;;;;;5012498;28;20807;-73
2021/06/10 01:18:31;;;;;;;12.43;11.13;;;19.70;99.90;;;;;;5023214;28;20463;-72
2021/06/10 01:20:59;;;;;;;13.50;11.60;;;19.60;99.90;;;;;;5024259;28;20451;-73
2021/06/10 01:23:38;;;;;;;12.27;10.97;;;19.60;99.90;;;;;;5031425;28;20982;-72
2021/06/10 01:26:14;;;;;;;13.40;12.10;;;19.60;99.90;;;;;;5013446;28;20856;-73
2021/06/10 01:28:45;;;;;;;11.33;10.20;;;19.60;99.90;;;;;;5012776;28;20859;-73
2021/06/10 01:31:14;;;;;;;15.33;10.63;;;19.50;99.90;;;;;;5030914;28;20470;-73
2021/06/10 01:33:44;;;;;;;12.60;11.50;;;19.40;99.90;;;;;;5033806;28;20538;-73
2021/06/10 01:36:15;;;;;;;12.17;10.67;;;19.30;99.90;;;;;;5033007;28;20462;-73
2021/06/10 01:38:45;;;;;;;13.20;10.30;;;19.30;99.90;;;;;;5033307;28;20474;-73
2021/06/10 01:41:12;;;;;;;14.20;12.17;;;19.30;99.90;;;;;;5034387;28;20786;-73
2021/06/10 01:43:41;;;;;;;12.60;11.40;;;19.30;99.90;;;;;;5030645;28;20460;-72
2021/06/10 01:46:11;;;;;;;16.20;11.10;;;19.20;99.90;;;;;;5031949;28;20882;-72
2021/06/10 01:48:41;;;;;;;16.43;12.10;;;19.20;99.90;;;;;;5033151;28;20448;-72
2021/06/10 01:51:08;;;;;;;12.97;11.57;;;19.20;99.90;;;;;;5034355;28;20489;-73
2021/06/10 01:53:38;;;;;;;14.47;12.40;;;19.10;99.90;;;;;;5034415;28;20466;-73
2021/06/10 01:56:07;;;;;;;13.43;12.13;;;19.10;99.90;;;;;;5033786;28;20470;-73
2021/06/10 01:58:35;;;;;;;14.50;12.33;;;19.10;99.90;;;;;;5033270;28;20513;-73
2021/06/10 02:01:03;;;;;;;14.70;13.40;;;19.10;99.90;;;;;;5034191;28;20867;-73
2021/06/10 02:03:32;;;;;;;14.37;12.10;;;19.10;99.90;;;;;;5034523;28;20462;-73
2021/06/10 02:06:08;;;;;;;14.83;12.70;;;19.10;99.90;;;;;;5035007;28;20490;-73
2021/06/10 02:08:55;;;;;;;14.17;12.67;;;19.00;99.90;;;;;;5028324;28;20442;-73
2021/06/10 02:11:23;;;;;;;14.40;12.00;;;19.00;99.90;;;;;;5033159;28;20446;-73
2021/06/10 02:13:50;;;;;;;16.90;14.97;;;19.00;99.90;;;;;;5033906;28;20451;-73
2021/06/10 02:16:18;;;;;;;15.00;12.53;;;18.90;99.90;;;;;;5034125;28;20882;-72
2021/06/10 02:18:48;;;;;;;14.30;12.80;;;18.90;99.90;;;;;;5030821;28;20467;-73
2021/06/10 02:21:21;;;;;;;16.37;12.50;;;18.90;99.90;;;;;;5033887;28;20499;-73
2021/06/10 02:23:49;;;;;;;13.73;11.33;;;18.90;99.90;;;;;;5034372;28;20453;-73
2021/06/10 02:26:17;;;;;;;15.17;13.70;;;18.80;99.90;;;;;;5039416;28;20490;-72
2021/06/10 02:28:44;;;;;;;13.83;12.40;;;18.80;99.90;;;;;;5032838;28;20455;-73
2021/06/10 02:31:12;;;;;;;14.80;13.40;;;18.70;99.90;;;;;;5033432;28;20859;-74
2021/06/10 02:33:41;;;;;;;15.47;13.97;;;18.60;99.90;;;;;;5034034;28;20481;-72
2021/06/10 02:36:12;;;;;;;18.20;16.30;;;18.70;99.90;;;;;;5032838;28;20470;-73
2021/06/10 02:38:45;;;;;;;17.17;14.43;;;18.60;99.90;;;;;;5033220;28;20508;-73
2021/06/10 02:41:14;;;;;;;16.83;14.50;;;18.50;99.90;;;;;;5014685;28;20969;-73
2021/06/10 02:43:41;;;;;;;13.83;12.50;;;18.40;99.90;;;;;;5036682;28;20461;-72
2021/06/10 02:46:11;;;;;;;17.97;13.90;;;18.40;99.90;;;;;;5033311;28;20498;-73
2021/06/10 02:48:39;;;;;;;15.37;13.87;;;18.40;99.90;;;;;;5027243;28;20455;-73
2021/06/10 02:51:06;;;;;;;17.50;15.60;;;18.40;99.90;;;;;;5033762;28;20468;-73
2021/06/10 02:53:35;;;;;;;17.77;15.07;;;18.40;99.90;;;;;;5033130;28;20446;-73
2021/06/10 02:56:04;;;;;;;19.00;16.30;;;18.40;99.90;;;;;;5033314;28;20466;-73
2021/06/10 02:58:32;;;;;;;15.40;13.63;;;18.30;99.90;;;;;;5032263;28;20450;-72
2021/06/10 03:01:03;;;;;;;16.10;14.60;;;18.30;99.90;;;;;;5033176;28;20446;-73
2021/06/10 03:03:31;;;;;;;15.87;14.03;;;18.30;99.90;;;;;;5033541;28;20453;-73
2021/06/10 03:05:59;;;;;;;25.50;13.97;;;18.30;99.90;;;;;;5032799;28;20544;-72
2021/06/10 03:08:26;;;;;;;13.20;11.90;;;18.30;99.90;;;;;;5026004;28;20445;-73
2021/06/10 03:10:57;;;;;;;15.77;14.17;;;18.30;99.90;;;;;;5032839;28;20439;-72
2021/06/10 03:13:26;;;;;;;15.47;14.00;;;18.30;99.90;;;;;;5029904;28;20474;-73
2021/06/10 03:15:53;;;;;;;17.53;15.77;;;18.30;99.90;;;;;;5033135;28;20537;-73
2021/06/10 03:18:21;;;;;;;15.63;14.27;;;18.20;99.90;;;;;;5032008;28;20461;-73
2021/06/10 03:20:49;;;;;;;15.53;14.03;;;18.30;99.90;;;;;;5032428;28;20943;-72
2021/06/10 03:23:15;;;;;;;15.23;13.83;;;18.30;99.90;;;;;;5033076;28;20916;-72
2021/06/10 03:25:43;;;;;;;14.37;13.03;;;18.30;99.90;;;;;;5032560;28;20489;-72
2021/06/10 03:28:12;;;;;;;14.50;13.10;;;18.30;99.90;;;;;;5031805;28;20446;-73
2021/06/10 03:30:39;;;;;;;15.30;13.73;;;18.30;99.90;;;;;;5032919;28;20462;-73
2021/06/10 03:33:07;;;;;;;15.50;14.00;;;18.30;99.90;;;;;;5032239;28;20435;-73
2021/06/10 03:35:36;;;;;;;16.77;15.00;;;18.30;99.90;;;;;;5032231;28;20439;-73
2021/06/10 03:38:04;;;;;;;14.03;12.40;;;18.40;99.90;;;;;;5032441;28;20451;-73
2021/06/10 03:40:32;;;;;;;16.43;14.83;;;18.50;99.90;;;;;;5031992;28;20461;-73
2021/06/10 03:42:59;;;;;;;15.57;13.63;;;18.50;99.90;;;;;;5028557;28;21237;-74
2021/06/10 03:45:28;;;;;;;17.17;15.47;;;18.50;99.90;;;;;;5032404;28;20466;-73
2021/06/10 03:47:55;;;;;;;16.60;15.10;;;18.60;99.90;;;;;;5032119;28;20566;-73
2021/06/10 03:50:23;;;;;;;15.33;13.87;;;18.60;99.90;;;;;;5031829;28;20988;-73
2021/06/10 03:52:50;;;;;;;15.70;14.20;;;18.60;99.90;;;;;;5039371;28;20839;-73
2021/06/10 03:55:17;;;;;;;15.47;14.00;;;18.60;99.90;;;;;;5032123;28;20451;-73
2021/06/10 03:57:43;;;;;;;16.93;14.47;;;18.50;99.90;;;;;;5032170;28;20878;-73
2021/06/10 04:00:11;;;;;;;15.20;13.90;;;18.50;99.90;;;;;;5030952;28;20447;-72
2021/06/10 04:02:39;;;;;;;14.23;12.70;;;18.50;99.90;;;;;;5032009;28;20881;-72
2021/06/10 04:05:08;;;;;;;16.17;14.50;;;18.60;99.90;;;;;;5031527;28;20452;-73
2021/06/10 04:07:36;;;;;;;14.97;13.47;;;18.70;99.90;;;;;;5032063;28;20490;-73
2021/06/10 04:10:04;;;;;;;17.30;14.93;;;18.90;99.90;;;;;;5030140;28;20455;-73
2021/06/10 04:12:31;;;;;;;15.43;13.93;;;19.00;99.90;;;;;;5032334;28;20463;-72
2021/06/10 04:14:57;;;;;;;16.50;14.67;;;19.30;99.90;;;;;;5031727;28;20933;-72
2021/06/10 04:17:24;;;;;;;16.90;15.30;;;19.60;99.90;;;;;;5031311;28;20474;-72
2021/06/10 04:19:52;;;;;;;18.30;16.50;;;19.80;99.90;;;;;;5029642;28;20446;-72
2021/06/10 04:22:19;;;;;;;19.90;17.77;;;19.80;99.90;;;;;;5034490;28;20444;-72
2021/06/10 04:24:46;;;;;;;20.43;18.50;;;19.90;99.90;;;;;;5026403;28;20804;-72
2021/06/10 04:27:13;;;;;;;18.20;16.40;;;19.90;99.90;;;;;;5030388;28;20495;-73
2021/06/10 04:29:39;;;;;;;20.90;18.90;;;20.00;99.90;;;;;;5031207;28;20997;-73
2021/06/10 04:32:07;;;;;;;20.50;18.40;;;20.10;99.90;;;;;;5032029;28;20809;-73
2021/06/10 04:34:34;;;;;;;22.97;20.43;;;20.10;99.90;;;;;;5029950;28;20466;-72
2021/06/10 04:37:02;;;;;;;18.93;17.23;;;20.10;99.90;;;;;;5028678;28;20478;-73
2021/06/10 04:39:29;;;;;;;21.40;19.37;;;20.00;99.90;;;;;;5030286;28;20451;-73
2021/06/10 04:41:56;;;;;;;20.57;18.37;;;19.90;99.90;;;;;;5035021;28;20457;-73
2021/06/10 04:44:22;;;;;;;22.20;19.80;;;20.00;99.90;;;;;;5031460;28;20538;-74
2021/06/10 04:46:50;;;;;;;21.40;17.57;;;20.20;99.90;;;;;;5031030;28;20482;-73
2021/06/10 04:49:16;;;;;;;21.27;19.20;;;20.70;99.90;;;;;;5030956;28;20792;-72
2021/06/10 04:51:43;;;;;;;21.30;17.57;;;21.50;99.90;;;;;;5031384;28;20893;-73
2021/06/10 04:54:11;;;;;;;17.40;15.70;;;22.40;99.90;;;;;;5031149;28;20561;-73
2021/06/10 04:56:38;;;;;;;20.73;18.33;;;23.10;99.90;;;;;;5030571;28;20846;-72
2021/06/10 04:59:05;;;;;;;19.60;16.93;;;23.40;99.90;;;;;;5031325;28;20450;-73
2021/06/10 05:01:31;;;;;;;20.10;18.03;;;23.20;99.90;;;;;;5031528;28;20520;-73
2021/06/10 05:03:58;;;;;;;19.23;17.30;;;22.90;99.90;;;;;;5030361;28;20508;-73
2021/06/10 05:06:25;;;;;;;20.77;18.77;;;22.60;99.90;;;;;;5031227;28;20501;-73
2021/06/10 05:08:51;;;;;;;19.97;17.97;;;22.60;99.90;;;;;;5032580;28;20958;-73
2021/06/10 05:11:19;;;;;;;19.40;17.50;;;22.50;99.90;;;;;;5035381;28;20458;-73
2021/06/10 05:13:46;;;;;;;17.80;16.00;;;22.50;99.90;;;;;;5037501;28;20454;-71
2021/06/10 05:16:13;;;;;;;18.37;16.57;;;23.30;99.90;;;;;;5033555;28;20525;-73
2021/06/10 05:18:39;;;;;;;19.10;17.20;;;24.20;99.90;;;;;;5033512;28;20459;-72
2021/06/10 05:21:06;;;;;;;17.00;15.50;;;25.00;97.90;;;;;;5028985;28;20961;-72
2021/06/10 05:23:33;;;;;;;18.43;16.67;;;25.60;96.20;;;;;;5027794;28;20450;-72
2021/06/10 05:26:00;;;;;;;16.23;14.53;;;25.60;95.10;;;;;;5034435;28;20494;-73
2021/06/10 05:28:34;;;;;;;17.80;16.00;;;25.60;95.10;;;;;;5034110;28;20470;-72
2021/06/10 05:31:00;;;;;;;18.93;17.07;;;25.70;94.90;;;;;;5034733;28;20454;-72
2021/06/10 05:33:27;;;;;;;19.03;17.03;;;26.30;94.10;;;;;;5034296;28;20447;-72
2021/06/10 05:35:54;;;;;;;18.13;16.43;;;26.80;92.50;;;;;;5033188;28;20518;-72
2021/06/10 05:38:21;;;;;;;16.80;15.20;;;27.40;91.60;;;;;;5030863;28;20450;-73
2021/06/10 05:40:47;;;;;;;17.00;15.30;;;28.20;90.10;;;;;;5032415;28;20451;-74
2021/06/10 05:43:16;;;;;;;14.80;13.33;;;28.70;88.10;;;;;;5035681;28;20508;-73
2021/06/10 05:45:46;;;;;;;19.03;16.70;;;29.60;85.90;;;;;;5033790;28;20474;-73
2021/06/10 05:48:13;;;;;;;18.67;16.97;;;30.00;82.40;;;;;;5031381;28;20901;-74
2021/06/10 05:50:40;;;;;;;18.33;16.60;;;29.90;82.20;;;;;;5035143;28;20443;-73
2021/06/10 05:53:08;;;;;;;18.33;16.63;;;29.50;82.00;;;;;;5034350;28;20451;-73
2021/06/10 05:55:35;;;;;;;17.60;15.87;;;29.40;82.60;;;;;;5032993;28;20470;-74
2021/06/10 05:58:01;;;;;;;21.77;17.93;;;29.30;82.20;;;;;;5032672;28;20462;-73
2021/06/10 06:00:28;;;;;;;17.93;16.33;;;29.10;82.80;;;;;;5032661;28;20451;-73
2021/06/10 06:02:56;;;;;;;17.80;16.00;;;29.30;82.90;;;;;;5029848;28;20435;-73
2021/06/10 06:05:24;;;;;;;17.20;15.60;;;29.70;82.10;;;;;;5028267;28;20983;-72
2021/06/10 06:07:51;;;;;;;17.60;15.80;;;29.70;80.80;;;;;;5033926;28;20545;-72
2021/06/10 06:10:19;;;;;;;19.13;17.27;;;30.00;80.00;;;;;;5033527;28;20530;-72
2021/06/10 06:12:49;;;;;;;19.63;17.70;;;30.20;79.60;;;;;;5036800;28;20446;-71
2021/06/10 06:15:16;;;;;;;18.20;16.50;;;29.70;79.40;;;;;;5032047;28;20772;-71
2021/06/10 06:17:43;;;;;;;18.87;17.17;;;29.90;80.50;;;;;;5032958;28;20471;-71
2021/06/10 06:20:13;;;;;;;17.87;16.27;;;29.70;80.80;;;;;;5033841;28;20796;-71
2021/06/10 06:22:42;;;;;;;20.30;18.43;;;29.70;80.80;;;;;;5033896;28;20503;-71
2021/06/10 06:25:10;;;;;;;18.50;16.70;;;30.00;80.90;;;;;;5033572;28;20449;-71
2021/06/10 06:27:37;;;;;;;19.80;17.70;;;30.00;80.60;;;;;;5032700;28;20574;-71
2021/06/10 06:30:08;;;;;;;20.83;18.47;;;30.30;78.60;;;;;;5033279;28;20443;-72
2021/06/10 06:32:35;;;;;;;20.30;18.47;;;30.70;78.50;;;;;;5033524;28;21417;-73
2021/06/10 06:35:07;;;;;;;20.90;18.90;;;30.70;76.90;;;;;;5031431;28;20803;-73
2021/06/10 06:37:35;;;;;;;48.83;25.83;;;30.20;76.80;;;;;;5033995;28;20466;-72
2021/06/10 06:40:03;;;;;;;54.23;25.47;;;29.60;77.40;;;;;;5030739;28;20450;-72
2021/06/10 06:42:30;;;;;;;27.37;20.20;;;29.40;78.80;;;;;;5043849;28;20455;-73
2021/06/10 06:44:57;;;;;;;20.40;17.23;;;29.80;78.90;;;;;;5031098;28;20917;-73
2021/06/10 06:47:23;;;;;;;18.33;16.73;;;30.30;77.90;;;;;;5031875;28;20498;-72
2021/06/10 06:49:50;;;;;;;30.87;18.20;;;30.60;75.00;;;;;;5021247;28;20869;-74
2021/06/10 06:52:17;;;;;;;21.10;19.00;;;31.30;74.20;;;;;;5031244;28;20530;-72
2021/06/10 06:54:45;;;;;;;19.33;17.43;;;31.70;73.30;;;;;;5032945;28;20451;-72
2021/06/10 06:57:12;;;;;;;19.20;17.20;;;31.90;74.10;;;;;;5032558;28;20459;-71
2021/06/10 06:59:39;;;;;;;18.43;16.73;;;32.10;72.00;;;;;;5031170;28;20466;-73
2021/06/10 07:02:06;;;;;;;19.57;17.67;;;32.40;72.00;;;;;;5032891;28;20451;-73
2021/06/10 07:04:32;;;;;;;20.33;18.33;;;32.90;70.40;;;;;;5032344;28;20433;-71
2021/06/10 07:06:59;;;;;;;20.63;18.50;;;33.00;69.10;;;;;;5033037;28;20490;-73
2021/06/10 07:09:26;;;;;;;19.60;17.70;;;33.00;69.20;;;;;;5032343;28;20447;-71
2021/06/10 07:11:54;;;;;;;22.87;18.40;;;32.40;70.30;;;;;;5033157;28;20485;-71
2021/06/10 07:14:21;;;;;;;19.77;17.97;;;32.40;71.50;;;;;;5031888;28;20472;-73
2021/06/10 07:16:48;;;;;;;18.13;16.17;;;32.40;72.00;;;;;;5032477;28;20462;-71
2021/06/10 07:19:14;;;;;;;19.23;17.43;;;32.50;72.60;;;;;;5032506;28;20458;-74
2021/06/10 07:21:43;;;;;;;19.03;17.10;;;32.80;71.70;;;;;;5032454;28;20461;-71
2021/06/10 07:24:10;;;;;;;20.43;18.47;;;33.00;71.00;;;;;;5015495;28;20551;-72
2021/06/10 07:26:37;;;;;;;21.50;19.50;;;32.80;69.30;;;;;;5035603;28;20486;-71
2021/06/10 07:29:05;;;;;;;21.43;19.20;;;32.80;69.70;;;;;;5034423;28;20892;-72
2021/06/10 07:31:32;;;;;;;22.57;20.67;;;32.50;68.80;;;;;;5031285;28;20455;-73
2021/06/10 07:33:58;;;;;;;20.07;18.23;;;32.50;69.40;;;;;;5032080;28;20809;-73
2021/06/10 07:36:25;;;;;;;18.73;16.93;;;33.00;68.30;;;;;;5032437;28;20860;-72
2021/06/10 07:38:52;;;;;;;18.50;16.80;;;33.10;68.00;;;;;;5031167;28;20455;-72
2021/06/10 07:41:19;;;;;;;16.50;14.97;;;33.50;66.50;;;;;;5032517;28;20457;-71
2021/06/10 07:43:46;;;;;;;19.03;17.00;;;34.10;63.20;;;;;;5035288;28;20447;-71
2021/06/10 07:46:14;;;;;;;19.67;17.57;;;33.90;62.20;;;;;;5031457;28;20486;-72
2021/06/10 07:48:42;;;;;;;21.07;19.07;;;34.00;61.20;;;;;;5031190;28;20447;-72
2021/06/10 07:51:09;;;;;;;19.10;17.03;;;34.20;61.00;;;;;;5031986;28;20478;-70
2021/06/10 07:53:38;;;;;;;17.57;15.80;;;34.50;60.80;;;;;;5031006;28;20454;-70
2021/06/10 07:56:09;;;;;;;22.17;19.97;;;34.80;60.10;;;;;;5031469;28;20519;-73
2021/06/10 07:58:36;;;;;;;23.57;19.40;;;34.80;59.60;;;;;;5034183;28;20540;-73
2021/06/10 08:01:04;;;;;;;21.73;19.67;;;34.40;61.70;;;;;;5028926;28;20530;-71
2021/06/10 08:03:32;;;;;;;21.20;19.27;;;34.30;61.90;;;;;;5026814;28;20459;-71
2021/06/10 08:06:00;;;;;;;22.43;20.23;;;34.40;61.90;;;;;;5031169;28;20463;-72
2021/06/10 08:08:27;;;;;;;19.90;18.13;;;34.10;62.50;;;;;;5030837;28;20454;-71
2021/06/10 08:10:56;;;;;;;21.83;19.90;;;34.50;63.30;;;;;;5031482;28;20463;-72
2021/06/10 08:13:24;;;;;;;21.47;19.47;;;34.50;62.00;;;;;;5031564;28;20530;-72
2021/06/10 08:15:51;;;;;;;23.43;21.13;;;34.20;63.20;;;;;;5031521;28;20475;-72
2021/06/10 08:18:18;;;;;;;21.80;19.60;;;34.10;62.50;;;;;;5030717;28;20463;-72
2021/06/10 08:20:46;;;;;;;22.60;20.60;;;34.10;62.60;;;;;;5031805;28;20817;-72
2021/06/10 08:23:15;;;;;;;24.67;22.37;;;34.30;62.50;;;;;;5031625;28;20443;-72
2021/06/10 08:25:43;;;;;;;23.40;19.87;;;34.20;61.00;;;;;;5026048;28;20477;-71
2021/06/10 08:28:12;;;;;;;28.50;22.70;;;34.40;62.60;;;;;;5030617;28;20490;-72
2021/06/10 08:30:40;;;;;;;20.87;19.00;;;34.20;61.00;;;;;;5033506;28;20450;-72
2021/06/10 08:33:07;;;;;;;24.07;21.97;;;34.40;61.50;;;;;;5031069;28;20443;-72
2021/06/10 08:35:34;;;;;;;24.07;21.87;;;34.70;61.00;;;;;;5031597;28;20539;-71
2021/06/10 08:38:05;;;;;;;23.27;21.07;;;34.70;61.20;;;;;;5031688;28;20451;-71
2021/06/10 08:40:32;;;;;;;21.80;19.80;;;34.70;59.80;;;;;;5031221;28;20463;-72
2021/06/10 08:43:00;;;;;;;22.00;20.00;;;34.30;59.90;;;;;;5038353;28;20557;-74
2021/06/10 08:45:29;;;;;;;24.63;22.37;;;34.30;59.80;;;;;;5035354;28;20454;-72
2021/06/10 08:47:57;;;;;;;24.27;21.90;;;34.20;59.70;;;;;;5035921;28;20514;-71
2021/06/10 08:50:27;;;;;;;26.23;22.87;;;33.60;60.00;;;;;;5034877;28;20446;-72
2021/06/10 08:52:54;;;;;;;22.67;20.67;;;33.70;61.40;;;;;;5030864;28;20941;-72
2021/06/10 08:55:23;;;;;;;22.30;20.30;;;34.00;61.50;;;;;;5035050;28;20434;-71
2021/06/10 08:57:49;;;;;;;25.30;22.83;;;34.20;61.70;;;;;;5034552;28;20493;-73
2021/06/10 09:00:32;;;;;;;24.63;22.43;;;34.10;61.10;;;;;;5034971;28;20542;-72
2021/06/10 09:03:00;;;;;;;27.60;25.00;;;34.00;61.20;;;;;;5034538;28;20569;-70
2021/06/10 09:05:28;;;;;;;24.30;22.07;;;33.90;61.80;;;;;;5034119;28;20446;-71
2021/06/10 09:07:57;;;;;;;26.80;22.97;;;33.90;61.60;;;;;;5035009;28;20482;-78
2021/06/10 09:10:26;;;;;;;24.03;21.73;;;33.80;60.80;;;;;;5030758;28;20461;-72
2021/06/10 09:12:55;;;;;;;26.63;24.33;;;34.20;61.00;;;;;;5033267;28;20517;-73
2021/06/10 09:15:23;;;;;;;25.23;22.63;;;34.80;59.20;;;;;;5035018;28;20450;-73
2021/06/10 09:17:51;;;;;;;23.80;21.43;;;34.40;59.30;;;;;;5034931;28;20481;-75
2021/06/10 09:20:41;;;;;;;23.20;21.07;;;34.80;61.00;;;;;;5034711;28;20458;-74
2021/06/10 09:23:17;;;;;;;24.70;22.50;;;35.50;59.70;;;;;;5015346;28;20446;-74
2021/06/10 09:25:48;;;;;;;27.10;24.70;;;35.40;59.20;;;;;;5012589;28;20457;-73
2021/06/10 09:28:16;;;;;;;25.70;23.30;;;35.60;57.50;;;;;;5033278;28;20518;-72
2021/06/10 09:30:48;;;;;;;24.63;22.23;;;35.10;58.80;;;;;;5034646;28;20447;-75
2021/06/10 09:33:16;;;;;;;27.40;24.70;;;34.40;59.80;;;;;;5034840;28;20451;-74
2021/06/10 09:35:45;;;;;;;29.80;27.23;;;33.90;60.30;;;;;;5034025;28;20447;-73
2021/06/10 09:38:15;;;;;;;27.30;24.87;;;33.20;60.90;;;;;;5034251;28;20454;-73
2021/06/10 09:40:42;;;;;;;33.40;29.90;;;32.30;62.90;;;;;;5033723;28;20676;-72
2021/06/10 09:43:10;;;;;;;28.03;25.07;;;31.50;65.00;;;;;;5033972;28;20485;-72
2021/06/10 09:45:37;;;;;;;24.93;22.80;;;31.50;66.40;;;;;;5033930;28;20447;-70
2021/06/10 09:48:05;;;;;;;27.87;25.37;;;31.50;67.10;;;;;;5033675;28;20493;-71
2021/06/10 09:50:37;;;;;;;28.63;25.73;;;31.50;66.30;;;;;;5033532;28;20459;-69
2021/06/10 09:53:08;;;;;;;25.70;23.33;;;31.90;66.10;;;;;;5033751;28;20473;-73
2021/06/10 09:55:43;;;;;;;26.30;23.90;;;32.40;66.30;;;;;;5029185;28;20526;-71
2021/06/10 09:58:23;;;;;;;24.63;22.53;;;33.20;66.10;;;;;;5034341;28;20482;-72
2021/06/10 10:00:52;;;;;;;26.10;23.70;;;33.10;64.50;;;;;;5032641;28;20451;-70
2021/06/10 10:03:30;;;;;;;29.50;26.87;;;33.40;64.00;;;;;;5033765;28;20470;-75
2021/06/10 10:05:59;;;;;;;24.37;22.17;;;32.90;63.00;;;;;;5033148;28;20471;-75
2021/06/10 10:08:27;;;;;;;26.73;24.00;;;32.40;64.60;;;;;;5034513;28;20910;-75
2021/06/10 10:10:55;;;;;;;25.40;22.80;;;32.60;65.90;;;;;;5031389;28;20944;-80
2021/06/10 10:13:25;;;;;;;25.67;23.33;;;32.80;64.30;;;;;;5037173;28;20562;-76
2021/06/10 10:15:52;;;;;;;26.50;24.03;;;32.20;64.40;;;;;;5033457;28;20467;-73
2021/06/10 10:18:20;;;;;;;27.63;25.13;;;31.50;67.10;;;;;;5033045;28;20462;-73
2021/06/10 10:20:47;;;;;;;25.23;22.97;;;31.50;66.40;;;;;;5033446;28;20481;-73
2021/06/10 10:23:15;;;;;;;24.63;22.23;;;31.40;65.90;;;;;;5033170;28;20454;-73
2021/06/10 10:25:42;;;;;;;21.13;19.07;;;30.60;67.30;;;;;;5032953;28;20538;-72
2021/06/10 10:28:13;;;;;;;24.30;21.93;;;30.50;67.90;;;;;;5033105;28;20482;-72
2021/06/10 10:30:45;;;;;;;23.20;20.90;;;30.90;68.10;;;;;;5033270;28;20861;-72
2021/06/10 10:33:16;;;;;;;23.07;20.67;;;31.40;67.70;;;;;;5035501;28;20446;-72
2021/06/10 10:35:51;;;;;;;19.83;18.00;;;31.50;67.20;;;;;;5031534;28;20451;-74
2021/06/10 10:38:21;;;;;;;21.70;19.60;;;31.40;64.90;;;;;;5033117;28;20439;-71
2021/06/10 10:40:59;;;;;;;18.50;16.60;;;30.60;64.70;;;;;;5032984;28;20452;-73
2021/06/10 10:43:28;;;;;;;20.27;18.37;;;30.20;66.80;;;;;;5036192;28;20541;-73
2021/06/10 10:46:10;;;;;;;17.23;15.63;;;30.10;66.20;;;;;;5032818;28;20471;-72
2021/06/10 10:48:42;;;;;;;20.73;18.63;;;29.90;68.70;;;;;;5032869;28;20455;-73
2021/06/10 10:51:27;;;;;;;18.50;16.60;;;29.60;68.40;;;;;;5033117;28;20477;-72
2021/06/10 10:53:56;;;;;;;17.80;16.20;;;29.50;69.10;;;;;;5033579;28;20485;-71
2021/06/10 10:56:38;;;;;;;21.83;19.60;;;29.30;69.40;;;;;;5032631;28;20533;-71
2021/06/10 10:59:16;;;;;;;18.70;16.47;;;28.80;69.20;;;;;;5024620;28;20558;-71
2021/06/10 11:02:02;;;;;;;20.20;14.07;;;28.70;70.40;;;;;;5033382;28;20462;-73
2021/06/10 11:04:47;;;;;;;12.67;11.47;;;28.70;70.70;;;;;;5015853;28;20449;-72
2021/06/10 11:07:59;;;;;;;12.93;11.70;;;28.80;69.00;;;;;;5031969;28;20564;-73
2021/06/10 11:11:04;;;;;;;15.90;14.50;;;29.10;68.40;;;;;;4988601;28;20537;-70
2021/06/10 11:13:33;;;;;;;14.83;13.53;;;29.20;68.50;;;;;;5028838;28;20546;-76
2021/06/10 11:16:02;;;;;;;15.37;13.73;;;29.00;69.90;;;;;;5024447;28;20551;-72
2021/06/10 11:18:50;;;;;;;15.47;13.97;;;28.70;70.50;;;;;;5031451;28;20463;-70
2021/06/10 11:21:48;;;;;;;17.77;11.40;;;28.60;69.90;;;;;;5031439;28;20446;-71
2021/06/10 11:24:18;;;;;;;12.73;11.53;;;28.40;69.60;;;;;;5024123;28;20451;-72
2021/06/10 11:26:53;;;;;;;14.13;12.73;;;28.60;69.60;;;;;;5031155;28;20518;-71
2021/06/10 11:29:20;;;;;;;9.37;8.37;;;28.70;69.40;;;;;;5025720;28;20509;-75
2021/06/10 11:32:27;;;;;;;11.13;10.00;;;28.90;67.80;;;;;;5031469;28;20799;-74
2021/06/10 11:35:01;;;;;;;10.27;9.37;;;28.70;65.50;;;;;;5003875;28;20447;-69
2021/06/10 11:37:28;;;;;;;9.93;8.90;;;28.60;66.40;;;;;;5029037;28;20470;-71
2021/06/10 11:39:56;;;;;;;9.60;8.23;;;28.60;66.30;;;;;;5031459;28;20944;-72
2021/06/10 11:42:24;;;;;;;17.43;8.83;;;28.60;67.10;;;;;;5029904;28;20506;-71
2021/06/10 11:44:52;;;;;;;19.30;8.37;;;28.70;67.00;;;;;;5028718;28;20444;-73
2021/06/10 11:47:24;;;;;;;8.63;7.60;;;28.60;65.70;;;;;;5029446;28;20827;-71
2021/06/10 11:49:52;;;;;;;6.53;5.93;;;28.30;66.90;;;;;;5029600;28;20482;-69
2021/06/10 11:52:20;;;;;;;12.17;6.60;;;28.30;66.20;;;;;;5031455;28;20451;-71
2021/06/10 11:55:07;;;;;;;11.23;5.70;;;28.40;64.40;;;;;;5030696;28;20450;-72
2021/06/10 11:57:34;;;;;;;6.00;5.40;;;28.50;64.20;;;;;;5029505;28;20474;-69
2021/06/10 12:00:10;;;;;;;8.30;4.20;;;28.30;62.60;;;;;;5030829;28;20474;-71
2021/06/10 12:02:38;;;;;;;5.17;4.67;;;28.40;61.60;;;;;;5031746;28;20443;-70
2021/06/10 12:05:15;;;;;;;9.13;5.13;;;28.30;61.20;;;;;;5029858;28;20454;-70
2021/06/10 12:07:43;;;;;;;4.40;4.00;;;28.40;60.70;;;;;;5031010;28;20501;-72
2021/06/10 12:10:16;;;;;;;7.57;5.63;;;28.40;60.70;;;;;;5031082;28;20504;-71
2021/06/10 12:12:45;;;;;;;6.20;5.60;;;28.30;60.80;;;;;;5031531;28;20541;-71
2021/06/10 12:15:28;;;;;;;6.80;4.43;;;28.00;61.80;;;;;;5030418;28;20920;-69
2021/06/10 12:17:56;;;;;;;5.20;4.70;;;28.00;63.00;;;;;;5029756;28;21021;-71
2021/06/10 12:20:25;;;;;;;4.77;4.03;;;27.70;61.90;;;;;;5027982;28;20447;-72
2021/06/10 12:22:55;;;;;;;9.30;5.93;;;27.60;62.10;;;;;;5021086;28;20451;-71
2021/06/10 12:25:25;;;;;;;8.23;5.77;;;27.70;63.00;;;;;;5030537;28;20463;-71
2021/06/10 12:27:52;;;;;;;5.90;5.30;;;27.80;64.00;;;;;;5026952;28;20510;-75
2021/06/10 12:30:25;;;;;;;6.23;4.70;;;27.70;62.80;;;;;;5025566;28;20454;-72
2021/06/10 12:32:52;;;;;;;4.27;3.70;;;27.80;64.00;;;;;;5030985;28;20466;-71
2021/06/10 12:35:21;;;;;;;20.97;6.10;;;27.90;65.00;;;;;;5030585;28;20451;-71
2021/06/10 12:37:55;;;;;;;14.63;5.30;;;28.20;62.90;;;;;;5030400;28;20932;-73
2021/06/10 12:40:34;;;;;;;5.23;4.30;;;28.10;62.50;;;;;;5029390;28;20560;-71
2021/06/10 12:43:10;;;;;;;4.77;4.27;;;28.00;62.90;;;;;;5029426;28;20499;-73
2021/06/10 12:45:37;;;;;;;6.03;5.40;;;27.80;63.30;;;;;;5021452;28;20457;-71